sensor_id;sensor_type;location;lat;lon;timestamp;P1;durP1;ratioP1;P2;durP2;ratioP2
40717;SDS011;26405;51.850;-2.246;2023-07-29T00:01:46;6.67;;;2.27;;
40717;SDS011;26405;51.850;-2.246;2023-07-29T00:04:12;8.93;;;2.50;;
40717;SDS011;26405;51.850;-2.246;2023-07-29T00:06:37;4.87;;;2.43;;
40717;SDS011;26405;51.850;-2.246;2023-07-29T00:09:02;7.20;;;2.80;;
40717;SDS011;26405;51.850;-2.246;2023-07-29T00:11:28;8.50;;;2.30;;
40717;SDS011;26405;51.850;-2.246;2023-07-29T00:13:53;5.93;;;2.37;;
40717;SDS011;26405;51.850;-2.246;2023-07-29T00:16:19;7.07;;;2.40;;
40717;SDS011;26405;51.850;-2.246;2023-07-29T00:18:47;7.57;;;2.53;;
40717;SDS011;26405;51.850;-2.246;2023-07-29T00:21:12;5.40;;;2.30;;
40717;SDS011;26405;51.850;-2.246;2023-07-29T00:26:13;5.55;;;2.30;;
40717;SDS011;26405;51.850;-2.246;2023-07-29T00:28:38;3.92;;;2.17;;
40717;SDS011;26405;51.850;-2.246;2023-07-29T00:31:04;4.80;;;2.67;;
40717;SDS011;26405;51.850;-2.246;2023-07-29T00:33:29;4.53;;;2.37;;
40717;SDS011;26405;51.850;-2.246;2023-07-29T00:35:54;6.77;;;2.43;;
40717;SDS011;26405;51.850;-2.246;2023-07-29T00:38:20;4.43;;;2.45;;
40717;SDS011;26405;51.850;-2.246;2023-07-29T00:40:45;3.90;;;2.20;;
40717;SDS011;26405;51.850;-2.246;2023-07-29T00:43:10;5.33;;;2.27;;
40717;SDS011;26405;51.850;-2.246;2023-07-29T00:45:35;9.30;;;2.47;;
40717;SDS011;26405;51.850;-2.246;2023-07-29T00:48:01;5.43;;;2.40;;
40717;SDS011;26405;51.850;-2.246;2023-07-29T00:50:26;7.07;;;2.60;;
40717;SDS011;26405;51.850;-2.246;2023-07-29T00:52:53;7.07;;;2.40;;
40717;SDS011;26405;51.850;-2.246;2023-07-29T00:55:18;6.05;;;2.30;;
40717;SDS011;26405;51.850;-2.246;2023-07-29T00:57:44;6.20;;;2.20;;
40717;SDS011;26405;51.850;-2.246;2023-07-29T01:00:13;5.28;;;1.90;;
40717;SDS011;26405;51.850;-2.246;2023-07-29T01:02:38;10.00;;;2.60;;
40717;SDS011;26405;51.850;-2.246;2023-07-29T01:05:04;7.18;;;2.45;;
40717;SDS011;26405;51.850;-2.246;2023-07-29T01:17:23;7.85;;;2.63;;
40717;SDS011;26405;51.850;-2.246;2023-07-29T01:19:59;6.47;;;2.40;;
40717;SDS011;26405;51.850;-2.246;2023-07-29T01:22:25;6.43;;;2.43;;
40717;SDS011;26405;51.850;-2.246;2023-07-29T01:24:51;7.33;;;2.10;;
40717;SDS011;26405;51.850;-2.246;2023-07-29T01:27:16;8.67;;;2.53;;
40717;SDS011;26405;51.850;-2.246;2023-07-29T01:29:41;5.43;;;2.23;;
40717;SDS011;26405;51.850;-2.246;2023-07-29T01:32:14;5.03;;;2.30;;
40717;SDS011;26405;51.850;-2.246;2023-07-29T01:34:48;4.60;;;2.05;;
40717;SDS011;26405;51.850;-2.246;2023-07-29T01:37:15;8.82;;;2.53;;
40717;SDS011;26405;51.850;-2.246;2023-07-29T01:39:43;5.40;;;2.33;;
40717;SDS011;26405;51.850;-2.246;2023-07-29T01:42:10;6.32;;;2.30;;
40717;SDS011;26405;51.850;-2.246;2023-07-29T01:44:35;8.10;;;2.50;;
40717;SDS011;26405;51.850;-2.246;2023-07-29T01:47:01;6.38;;;2.38;;
40717;SDS011;26405;51.850;-2.246;2023-07-29T01:49:26;8.77;;;2.50;;
40717;SDS011;26405;51.850;-2.246;2023-07-29T01:51:52;7.40;;;2.50;;
40717;SDS011;26405;51.850;-2.246;2023-07-29T01:54:17;4.37;;;2.03;;
40717;SDS011;26405;51.850;-2.246;2023-07-29T01:56:42;6.77;;;2.63;;
40717;SDS011;26405;51.850;-2.246;2023-07-29T01:59:07;5.95;;;2.38;;
40717;SDS011;26405;51.850;-2.246;2023-07-29T02:01:33;5.53;;;2.37;;
40717;SDS011;26405;51.850;-2.246;2023-07-29T02:03:58;6.97;;;2.40;;
40717;SDS011;26405;51.850;-2.246;2023-07-29T02:06:23;6.37;;;2.63;;
40717;SDS011;26405;51.850;-2.246;2023-07-29T02:08:49;9.67;;;2.60;;
40717;SDS011;26405;51.850;-2.246;2023-07-29T02:11:14;6.23;;;2.30;;
40717;SDS011;26405;51.850;-2.246;2023-07-29T02:13:39;7.63;;;2.78;;
40717;SDS011;26405;51.850;-2.246;2023-07-29T02:16:05;7.53;;;2.33;;
40717;SDS011;26405;51.850;-2.246;2023-07-29T02:18:30;6.70;;;2.67;;
40717;SDS011;26405;51.850;-2.246;2023-07-29T02:20:55;8.60;;;2.63;;
40717;SDS011;26405;51.850;-2.246;2023-07-29T02:23:21;6.10;;;2.30;;
40717;SDS011;26405;51.850;-2.246;2023-07-29T02:25:46;6.27;;;2.40;;
40717;SDS011;26405;51.850;-2.246;2023-07-29T02:28:11;7.13;;;2.63;;
40717;SDS011;26405;51.850;-2.246;2023-07-29T02:30:36;8.77;;;2.60;;
40717;SDS011;26405;51.850;-2.246;2023-07-29T02:33:02;7.93;;;2.47;;
40717;SDS011;26405;51.850;-2.246;2023-07-29T02:35:27;7.13;;;2.20;;
40717;SDS011;26405;51.850;-2.246;2023-07-29T02:37:53;5.63;;;2.50;;
40717;SDS011;26405;51.850;-2.246;2023-07-29T02:40:18;11.48;;;2.58;;
40717;SDS011;26405;51.850;-2.246;2023-07-29T02:42:43;8.75;;;2.70;;
40717;SDS011;26405;51.850;-2.246;2023-07-29T02:45:08;8.87;;;2.43;;
40717;SDS011;26405;51.850;-2.246;2023-07-29T02:47:36;4.38;;;2.38;;
40717;SDS011;26405;51.850;-2.246;2023-07-29T02:50:01;5.47;;;2.50;;
40717;SDS011;26405;51.850;-2.246;2023-07-29T02:52:26;6.78;;;2.50;;
40717;SDS011;26405;51.850;-2.246;2023-07-29T02:54:52;8.82;;;2.67;;
40717;SDS011;26405;51.850;-2.246;2023-07-29T02:57:17;8.60;;;2.65;;
40717;SDS011;26405;51.850;-2.246;2023-07-29T02:59:42;10.17;;;2.53;;
40717;SDS011;26405;51.850;-2.246;2023-07-29T03:02:07;9.90;;;2.60;;
40717;SDS011;26405;51.850;-2.246;2023-07-29T03:04:33;7.80;;;2.40;;
40717;SDS011;26405;51.850;-2.246;2023-07-29T03:06:58;5.68;;;2.63;;
40717;SDS011;26405;51.850;-2.246;2023-07-29T03:09:24;7.00;;;2.38;;
40717;SDS011;26405;51.850;-2.246;2023-07-29T03:11:49;8.18;;;2.60;;
40717;SDS011;26405;51.850;-2.246;2023-07-29T03:14:16;8.65;;;2.67;;
40717;SDS011;26405;51.850;-2.246;2023-07-29T03:16:42;8.07;;;2.50;;
40717;SDS011;26405;51.850;-2.246;2023-07-29T03:19:07;6.53;;;2.50;;
40717;SDS011;26405;51.850;-2.246;2023-07-29T03:21:32;6.05;;;2.40;;
40717;SDS011;26405;51.850;-2.246;2023-07-29T03:23:58;8.10;;;2.77;;
40717;SDS011;26405;51.850;-2.246;2023-07-29T03:26:23;6.45;;;2.40;;
40717;SDS011;26405;51.850;-2.246;2023-07-29T03:28:48;11.87;;;2.73;;
40717;SDS011;26405;51.850;-2.246;2023-07-29T03:31:14;6.53;;;2.70;;
40717;SDS011;26405;51.850;-2.246;2023-07-29T03:33:39;6.22;;;2.33;;
40717;SDS011;26405;51.850;-2.246;2023-07-29T03:36:04;7.15;;;2.60;;
40717;SDS011;26405;51.850;-2.246;2023-07-29T03:38:29;6.55;;;2.60;;
40717;SDS011;26405;51.850;-2.246;2023-07-29T03:40:55;7.83;;;2.67;;
40717;SDS011;26405;51.850;-2.246;2023-07-29T03:43:21;5.27;;;2.40;;
40717;SDS011;26405;51.850;-2.246;2023-07-29T03:45:46;7.07;;;2.37;;
40717;SDS011;26405;51.850;-2.246;2023-07-29T03:48:11;4.85;;;2.40;;
40717;SDS011;26405;51.850;-2.246;2023-07-29T03:50:36;6.47;;;2.50;;
40717;SDS011;26405;51.850;-2.246;2023-07-29T03:53:02;7.77;;;2.67;;
40717;SDS011;26405;51.850;-2.246;2023-07-29T03:55:27;10.73;;;2.30;;
40717;SDS011;26405;51.850;-2.246;2023-07-29T03:57:55;6.15;;;2.58;;
40717;SDS011;26405;51.850;-2.246;2023-07-29T04:00:20;6.23;;;2.30;;
40717;SDS011;26405;51.850;-2.246;2023-07-29T04:02:45;4.50;;;2.22;;
40717;SDS011;26405;51.850;-2.246;2023-07-29T04:05:10;5.40;;;2.20;;
40717;SDS011;26405;51.850;-2.246;2023-07-29T04:07:36;6.97;;;2.43;;
40717;SDS011;26405;51.850;-2.246;2023-07-29T04:10:01;4.20;;;2.23;;
40717;SDS011;26405;51.850;-2.246;2023-07-29T04:12:27;6.60;;;2.50;;
40717;SDS011;26405;51.850;-2.246;2023-07-29T04:14:52;6.93;;;2.37;;
40717;SDS011;26405;51.850;-2.246;2023-07-29T04:17:17;7.07;;;2.57;;
40717;SDS011;26405;51.850;-2.246;2023-07-29T04:19:43;11.88;;;2.80;;
40717;SDS011;26405;51.850;-2.246;2023-07-29T04:22:08;8.83;;;2.70;;
40717;SDS011;26405;51.850;-2.246;2023-07-29T04:24:33;6.63;;;2.60;;
40717;SDS011;26405;51.850;-2.246;2023-07-29T04:26:58;7.60;;;2.60;;
40717;SDS011;26405;51.850;-2.246;2023-07-29T04:29:24;8.43;;;2.43;;
40717;SDS011;26405;51.850;-2.246;2023-07-29T04:31:49;6.15;;;2.63;;
40717;SDS011;26405;51.850;-2.246;2023-07-29T04:34:15;5.50;;;2.35;;
40717;SDS011;26405;51.850;-2.246;2023-07-29T04:36:40;5.47;;;2.60;;
40717;SDS011;26405;51.850;-2.246;2023-07-29T04:39:05;7.45;;;2.65;;
40717;SDS011;26405;51.850;-2.246;2023-07-29T04:41:31;8.15;;;2.80;;
40717;SDS011;26405;51.850;-2.246;2023-07-29T04:43:56;9.25;;;2.53;;
40717;SDS011;26405;51.850;-2.246;2023-07-29T04:46:21;5.15;;;2.25;;
40717;SDS011;26405;51.850;-2.246;2023-07-29T04:48:46;7.25;;;2.53;;
40717;SDS011;26405;51.850;-2.246;2023-07-29T04:51:12;6.20;;;2.50;;
40717;SDS011;26405;51.850;-2.246;2023-07-29T04:53:37;11.43;;;2.28;;
40717;SDS011;26405;51.850;-2.246;2023-07-29T04:56:03;2.88;;;2.05;;
40717;SDS011;26405;51.850;-2.246;2023-07-29T04:58:28;6.57;;;2.55;;
40717;SDS011;26405;51.850;-2.246;2023-07-29T05:00:55;6.73;;;2.40;;
40717;SDS011;26405;51.850;-2.246;2023-07-29T05:03:20;8.05;;;2.28;;
40717;SDS011;26405;51.850;-2.246;2023-07-29T05:05:45;8.10;;;2.60;;
40717;SDS011;26405;51.850;-2.246;2023-07-29T05:08:11;8.03;;;2.30;;
40717;SDS011;26405;51.850;-2.246;2023-07-29T05:10:36;5.17;;;2.10;;
40717;SDS011;26405;51.850;-2.246;2023-07-29T05:13:01;5.43;;;2.30;;
40717;SDS011;26405;51.850;-2.246;2023-07-29T05:15:27;8.77;;;2.57;;
40717;SDS011;26405;51.850;-2.246;2023-07-29T05:17:52;6.38;;;2.30;;
40717;SDS011;26405;51.850;-2.246;2023-07-29T05:20:17;5.38;;;2.25;;
40717;SDS011;26405;51.850;-2.246;2023-07-29T05:22:42;10.10;;;2.60;;
40717;SDS011;26405;51.850;-2.246;2023-07-29T05:25:08;6.22;;;2.00;;
40717;SDS011;26405;51.850;-2.246;2023-07-29T05:27:33;6.68;;;2.17;;
40717;SDS011;26405;51.850;-2.246;2023-07-29T05:29:58;6.63;;;2.00;;
40717;SDS011;26405;51.850;-2.246;2023-07-29T05:32:23;7.07;;;2.17;;
40717;SDS011;26405;51.850;-2.246;2023-07-29T05:34:49;8.30;;;2.58;;
40717;SDS011;26405;51.850;-2.246;2023-07-29T05:37:14;10.77;;;2.57;;
40717;SDS011;26405;51.850;-2.246;2023-07-29T05:39:39;6.95;;;2.25;;
40717;SDS011;26405;51.850;-2.246;2023-07-29T05:42:05;7.23;;;2.40;;
40717;SDS011;26405;51.850;-2.246;2023-07-29T05:44:30;4.38;;;2.05;;
40717;SDS011;26405;51.850;-2.246;2023-07-29T05:46:56;5.30;;;2.30;;
40717;SDS011;26405;51.850;-2.246;2023-07-29T05:49:22;9.13;;;2.70;;
40717;SDS011;26405;51.850;-2.246;2023-07-29T05:51:48;6.33;;;2.50;;
40717;SDS011;26405;51.850;-2.246;2023-07-29T05:54:15;8.55;;;2.70;;
40717;SDS011;26405;51.850;-2.246;2023-07-29T05:56:40;12.75;;;2.72;;
40717;SDS011;26405;51.850;-2.246;2023-07-29T05:59:05;8.45;;;2.60;;
40717;SDS011;26405;51.850;-2.246;2023-07-29T06:01:31;8.48;;;2.53;;
40717;SDS011;26405;51.850;-2.246;2023-07-29T06:03:56;9.95;;;3.05;;
40717;SDS011;26405;51.850;-2.246;2023-07-29T06:06:21;10.90;;;2.80;;
40717;SDS011;26405;51.850;-2.246;2023-07-29T06:08:48;11.20;;;2.33;;
40717;SDS011;26405;51.850;-2.246;2023-07-29T06:11:13;10.23;;;2.42;;
40717;SDS011;26405;51.850;-2.246;2023-07-29T06:13:39;6.60;;;2.38;;
40717;SDS011;26405;51.850;-2.246;2023-07-29T06:16:04;5.25;;;2.60;;
40717;SDS011;26405;51.850;-2.246;2023-07-29T06:18:29;8.52;;;2.33;;
40717;SDS011;26405;51.850;-2.246;2023-07-29T06:20:54;7.90;;;2.38;;
40717;SDS011;26405;51.850;-2.246;2023-07-29T06:23:20;9.32;;;2.70;;
40717;SDS011;26405;51.850;-2.246;2023-07-29T06:25:45;6.45;;;2.65;;
40717;SDS011;26405;51.850;-2.246;2023-07-29T06:28:10;7.53;;;2.30;;
40717;SDS011;26405;51.850;-2.246;2023-07-29T06:30:35;5.95;;;2.47;;
40717;SDS011;26405;51.850;-2.246;2023-07-29T06:33:01;6.55;;;2.28;;
40717;SDS011;26405;51.850;-2.246;2023-07-29T06:35:28;10.65;;;2.60;;
40717;SDS011;26405;51.850;-2.246;2023-07-29T06:37:53;8.57;;;2.33;;
40717;SDS011;26405;51.850;-2.246;2023-07-29T06:40:18;10.50;;;2.75;;
40717;SDS011;26405;51.850;-2.246;2023-07-29T06:42:44;6.03;;;2.20;;
40717;SDS011;26405;51.850;-2.246;2023-07-29T06:45:09;6.45;;;2.35;;
40717;SDS011;26405;51.850;-2.246;2023-07-29T06:47:35;7.03;;;2.20;;
40717;SDS011;26405;51.850;-2.246;2023-07-29T06:50:00;8.57;;;2.35;;
40717;SDS011;26405;51.850;-2.246;2023-07-29T06:52:26;7.82;;;2.70;;
40717;SDS011;26405;51.850;-2.246;2023-07-29T06:54:51;6.93;;;2.65;;
40717;SDS011;26405;51.850;-2.246;2023-07-29T06:57:16;7.30;;;2.40;;
40717;SDS011;26405;51.850;-2.246;2023-07-29T06:59:41;8.07;;;2.63;;
40717;SDS011;26405;51.850;-2.246;2023-07-29T07:02:08;5.68;;;2.45;;
40717;SDS011;26405;51.850;-2.246;2023-07-29T07:04:33;7.97;;;2.67;;
40717;SDS011;26405;51.850;-2.246;2023-07-29T07:06:59;8.17;;;2.53;;
40717;SDS011;26405;51.850;-2.246;2023-07-29T07:09:24;7.72;;;2.70;;
40717;SDS011;26405;51.850;-2.246;2023-07-29T07:11:50;8.80;;;2.93;;
40717;SDS011;26405;51.850;-2.246;2023-07-29T07:14:15;5.18;;;2.53;;
40717;SDS011;26405;51.850;-2.246;2023-07-29T07:16:40;10.47;;;2.93;;
40717;SDS011;26405;51.850;-2.246;2023-07-29T07:19:06;9.90;;;2.93;;
40717;SDS011;26405;51.850;-2.246;2023-07-29T07:21:31;8.23;;;2.50;;
40717;SDS011;26405;51.850;-2.246;2023-07-29T07:23:57;9.55;;;2.75;;
40717;SDS011;26405;51.850;-2.246;2023-07-29T07:26:22;11.80;;;2.92;;
40717;SDS011;26405;51.850;-2.246;2023-07-29T07:28:48;11.87;;;2.67;;
40717;SDS011;26405;51.850;-2.246;2023-07-29T07:31:13;8.23;;;2.87;;
40717;SDS011;26405;51.850;-2.246;2023-07-29T07:33:38;9.07;;;2.87;;
40717;SDS011;26405;51.850;-2.246;2023-07-29T07:36:04;11.03;;;2.70;;
40717;SDS011;26405;51.850;-2.246;2023-07-29T07:38:29;10.82;;;2.88;;
40717;SDS011;26405;51.850;-2.246;2023-07-29T07:40:55;9.43;;;2.73;;
40717;SDS011;26405;51.850;-2.246;2023-07-29T07:43:21;4.35;;;2.38;;
40717;SDS011;26405;51.850;-2.246;2023-07-29T07:45:46;8.60;;;2.47;;
40717;SDS011;26405;51.850;-2.246;2023-07-29T07:48:11;8.50;;;2.87;;
40717;SDS011;26405;51.850;-2.246;2023-07-29T07:50:38;8.75;;;2.55;;
40717;SDS011;26405;51.850;-2.246;2023-07-29T07:53:03;9.00;;;2.90;;
40717;SDS011;26405;51.850;-2.246;2023-07-29T07:55:29;10.53;;;2.70;;
40717;SDS011;26405;51.850;-2.246;2023-07-29T07:57:54;9.47;;;2.60;;
40717;SDS011;26405;51.850;-2.246;2023-07-29T08:00:20;7.87;;;2.70;;
40717;SDS011;26405;51.850;-2.246;2023-07-29T08:02:46;11.17;;;3.03;;
40717;SDS011;26405;51.850;-2.246;2023-07-29T08:05:11;8.17;;;2.67;;
40717;SDS011;26405;51.850;-2.246;2023-07-29T08:07:36;6.87;;;2.57;;
40717;SDS011;26405;51.850;-2.246;2023-07-29T08:10:02;6.50;;;2.40;;
40717;SDS011;26405;51.850;-2.246;2023-07-29T08:12:27;7.77;;;2.53;;
40717;SDS011;26405;51.850;-2.246;2023-07-29T08:14:53;7.03;;;2.47;;
40717;SDS011;26405;51.850;-2.246;2023-07-29T08:17:18;4.07;;;2.20;;
40717;SDS011;26405;51.850;-2.246;2023-07-29T08:19:43;9.77;;;2.63;;
40717;SDS011;26405;51.850;-2.246;2023-07-29T08:22:09;9.40;;;2.30;;
40717;SDS011;26405;51.850;-2.246;2023-07-29T08:24:38;7.85;;;2.78;;
40717;SDS011;26405;51.850;-2.246;2023-07-29T08:27:04;7.63;;;3.00;;
40717;SDS011;26405;51.850;-2.246;2023-07-29T08:29:29;12.07;;;2.73;;
40717;SDS011;26405;51.850;-2.246;2023-07-29T08:31:55;8.57;;;2.63;;
40717;SDS011;26405;51.850;-2.246;2023-07-29T08:34:20;7.60;;;2.60;;
40717;SDS011;26405;51.850;-2.246;2023-07-29T08:36:46;8.57;;;2.80;;
40717;SDS011;26405;51.850;-2.246;2023-07-29T08:39:12;8.73;;;2.77;;
40717;SDS011;26405;51.850;-2.246;2023-07-29T08:44:24;10.88;;;2.75;;
40717;SDS011;26405;51.850;-2.246;2023-07-29T08:46:51;8.95;;;2.50;;
40717;SDS011;26405;51.850;-2.246;2023-07-29T08:49:19;8.30;;;2.75;;
40717;SDS011;26405;51.850;-2.246;2023-07-29T08:54:29;5.60;;;2.10;;
40717;SDS011;26405;51.850;-2.246;2023-07-29T08:56:55;4.43;;;1.80;;
40717;SDS011;26405;51.850;-2.246;2023-07-29T08:59:20;5.47;;;1.80;;
40717;SDS011;26405;51.850;-2.246;2023-07-29T09:01:46;4.43;;;1.63;;
40717;SDS011;26405;51.850;-2.246;2023-07-29T09:04:12;3.90;;;1.80;;
40717;SDS011;26405;51.850;-2.246;2023-07-29T09:06:37;8.73;;;2.07;;
40717;SDS011;26405;51.850;-2.246;2023-07-29T09:09:04;5.55;;;2.00;;
40717;SDS011;26405;51.850;-2.246;2023-07-29T09:11:30;4.00;;;1.77;;
40717;SDS011;26405;51.850;-2.246;2023-07-29T09:13:56;2.70;;;1.50;;
40717;SDS011;26405;51.850;-2.246;2023-07-29T09:16:22;4.50;;;2.05;;
40717;SDS011;26405;51.850;-2.246;2023-07-29T09:18:48;5.47;;;2.07;;
40717;SDS011;26405;51.850;-2.246;2023-07-29T09:21:17;4.80;;;2.40;;
40717;SDS011;26405;51.850;-2.246;2023-07-29T09:23:43;6.40;;;2.13;;
40717;SDS011;26405;51.850;-2.246;2023-07-29T09:26:09;4.80;;;2.30;;
40717;SDS011;26405;51.850;-2.246;2023-07-29T09:28:37;7.07;;;2.05;;
40717;SDS011;26405;51.850;-2.246;2023-07-29T09:33:33;9.43;;;2.20;;
40717;SDS011;26405;51.850;-2.246;2023-07-29T09:36:00;9.63;;;2.50;;
40717;SDS011;26405;51.850;-2.246;2023-07-29T09:38:26;9.47;;;2.70;;
40717;SDS011;26405;51.850;-2.246;2023-07-29T09:40:55;7.07;;;2.30;;
40717;SDS011;26405;51.850;-2.246;2023-07-29T09:43:25;9.15;;;2.67;;
40717;SDS011;26405;51.850;-2.246;2023-07-29T09:45:52;10.38;;;2.63;;
40717;SDS011;26405;51.850;-2.246;2023-07-29T09:48:19;8.30;;;2.50;;
40717;SDS011;26405;51.850;-2.246;2023-07-29T09:50:50;7.15;;;2.53;;
40717;SDS011;26405;51.850;-2.246;2023-07-29T09:53:15;8.47;;;2.60;;
40717;SDS011;26405;51.850;-2.246;2023-07-29T09:55:46;7.45;;;2.40;;
40717;SDS011;26405;51.850;-2.246;2023-07-29T09:58:12;7.88;;;2.50;;
40717;SDS011;26405;51.850;-2.246;2023-07-29T10:00:38;9.73;;;2.70;;
40717;SDS011;26405;51.850;-2.246;2023-07-29T10:03:05;9.93;;;2.92;;
40717;SDS011;26405;51.850;-2.246;2023-07-29T10:05:31;8.73;;;2.50;;
40717;SDS011;26405;51.850;-2.246;2023-07-29T10:07:59;14.52;;;2.85;;
40717;SDS011;26405;51.850;-2.246;2023-07-29T10:10:25;12.80;;;3.20;;
40717;SDS011;26405;51.850;-2.246;2023-07-29T10:12:51;11.23;;;2.80;;
40717;SDS011;26405;51.850;-2.246;2023-07-29T10:15:17;10.90;;;3.08;;
40717;SDS011;26405;51.850;-2.246;2023-07-29T10:17:42;9.90;;;2.67;;
40717;SDS011;26405;51.850;-2.246;2023-07-29T10:20:09;10.37;;;2.70;;
40717;SDS011;26405;51.850;-2.246;2023-07-29T10:25:04;9.68;;;2.90;;
40717;SDS011;26405;51.850;-2.246;2023-07-29T10:27:33;8.20;;;2.50;;
40717;SDS011;26405;51.850;-2.246;2023-07-29T10:30:00;9.63;;;2.72;;
40717;SDS011;26405;51.850;-2.246;2023-07-29T10:32:28;12.85;;;3.00;;
40717;SDS011;26405;51.850;-2.246;2023-07-29T10:34:55;17.83;;;3.17;;
40717;SDS011;26405;51.850;-2.246;2023-07-29T10:37:22;13.97;;;3.20;;
40717;SDS011;26405;51.850;-2.246;2023-07-29T10:39:52;9.70;;;3.00;;
40717;SDS011;26405;51.850;-2.246;2023-07-29T10:42:18;14.75;;;3.58;;
40717;SDS011;26405;51.850;-2.246;2023-07-29T10:44:48;9.23;;;2.50;;
40717;SDS011;26405;51.850;-2.246;2023-07-29T10:47:18;16.02;;;2.80;;
40717;SDS011;26405;51.850;-2.246;2023-07-29T10:49:45;10.32;;;2.60;;
40717;SDS011;26405;51.850;-2.246;2023-07-29T10:52:15;12.25;;;3.13;;
40717;SDS011;26405;51.850;-2.246;2023-07-29T10:54:44;10.60;;;3.08;;
40717;SDS011;26405;51.850;-2.246;2023-07-29T10:57:13;15.02;;;3.53;;
40717;SDS011;26405;51.850;-2.246;2023-07-29T10:59:39;11.70;;;3.17;;
40717;SDS011;26405;51.850;-2.246;2023-07-29T11:02:12;10.30;;;2.95;;
40717;SDS011;26405;51.850;-2.246;2023-07-29T11:04:50;14.93;;;2.85;;
40717;SDS011;26405;51.850;-2.246;2023-07-29T11:10:03;9.63;;;2.87;;
40717;SDS011;26405;51.850;-2.246;2023-07-29T11:12:36;13.82;;;3.00;;
40717;SDS011;26405;51.850;-2.246;2023-07-29T11:17:41;13.15;;;3.60;;
40717;SDS011;26405;51.850;-2.246;2023-07-29T11:20:07;10.90;;;3.50;;
40717;SDS011;26405;51.850;-2.246;2023-07-29T11:22:33;16.73;;;3.50;;
40717;SDS011;26405;51.850;-2.246;2023-07-29T11:24:59;11.73;;;3.50;;
40717;SDS011;26405;51.850;-2.246;2023-07-29T11:27:25;15.20;;;3.38;;
40717;SDS011;26405;51.850;-2.246;2023-07-29T11:29:50;11.00;;;3.20;;
40717;SDS011;26405;51.850;-2.246;2023-07-29T11:32:21;9.68;;;2.97;;
40717;SDS011;26405;51.850;-2.246;2023-07-29T11:34:47;10.47;;;3.13;;
40717;SDS011;26405;51.850;-2.246;2023-07-29T11:37:12;12.43;;;3.87;;
40717;SDS011;26405;51.850;-2.246;2023-07-29T11:39:41;14.60;;;4.77;;
40717;SDS011;26405;51.850;-2.246;2023-07-29T11:42:10;11.45;;;3.20;;
40717;SDS011;26405;51.850;-2.246;2023-07-29T11:44:36;13.48;;;3.20;;
40717;SDS011;26405;51.850;-2.246;2023-07-29T11:47:05;12.13;;;3.13;;
40717;SDS011;26405;51.850;-2.246;2023-07-29T11:49:32;12.88;;;2.92;;
40717;SDS011;26405;51.850;-2.246;2023-07-29T11:51:57;11.93;;;3.15;;
40717;SDS011;26405;51.850;-2.246;2023-07-29T11:54:23;10.77;;;2.93;;
40717;SDS011;26405;51.850;-2.246;2023-07-29T11:56:50;11.50;;;3.15;;
40717;SDS011;26405;51.850;-2.246;2023-07-29T11:59:16;12.30;;;3.03;;
40717;SDS011;26405;51.850;-2.246;2023-07-29T12:01:41;11.63;;;3.10;;
40717;SDS011;26405;51.850;-2.246;2023-07-29T12:04:07;8.97;;;2.70;;
40717;SDS011;26405;51.850;-2.246;2023-07-29T12:06:33;11.90;;;3.25;;
40717;SDS011;26405;51.850;-2.246;2023-07-29T12:08:58;9.87;;;3.17;;
40717;SDS011;26405;51.850;-2.246;2023-07-29T12:11:27;10.97;;;3.23;;
40717;SDS011;26405;51.850;-2.246;2023-07-29T12:13:55;10.30;;;2.95;;
40717;SDS011;26405;51.850;-2.246;2023-07-29T12:16:21;9.73;;;2.78;;
40717;SDS011;26405;51.850;-2.246;2023-07-29T12:18:46;11.93;;;3.27;;
40717;SDS011;26405;51.850;-2.246;2023-07-29T12:21:14;7.85;;;2.70;;
40717;SDS011;26405;51.850;-2.246;2023-07-29T12:23:40;11.50;;;3.08;;
40717;SDS011;26405;51.850;-2.246;2023-07-29T12:26:05;9.17;;;2.83;;
40717;SDS011;26405;51.850;-2.246;2023-07-29T12:28:31;10.93;;;3.13;;
40717;SDS011;26405;51.850;-2.246;2023-07-29T12:33:32;9.23;;;2.80;;
40717;SDS011;26405;51.850;-2.246;2023-07-29T12:35:58;11.75;;;3.33;;
40717;SDS011;26405;51.850;-2.246;2023-07-29T12:38:25;11.80;;;2.70;;
40717;SDS011;26405;51.850;-2.246;2023-07-29T12:40:51;9.35;;;2.47;;
40717;SDS011;26405;51.850;-2.246;2023-07-29T12:43:16;7.60;;;2.60;;
40717;SDS011;26405;51.850;-2.246;2023-07-29T12:45:42;9.97;;;3.10;;
40717;SDS011;26405;51.850;-2.246;2023-07-29T12:48:09;10.05;;;2.83;;
40717;SDS011;26405;51.850;-2.246;2023-07-29T12:50:34;11.50;;;3.20;;
40717;SDS011;26405;51.850;-2.246;2023-07-29T12:53:00;8.40;;;2.83;;
40717;SDS011;26405;51.850;-2.246;2023-07-29T12:55:25;10.23;;;2.50;;
40717;SDS011;26405;51.850;-2.246;2023-07-29T12:57:51;10.20;;;3.10;;
40717;SDS011;26405;51.850;-2.246;2023-07-29T13:00:17;14.20;;;2.80;;
40717;SDS011;26405;51.850;-2.246;2023-07-29T13:02:42;9.17;;;2.80;;
40717;SDS011;26405;51.850;-2.246;2023-07-29T13:05:11;12.80;;;2.73;;
40717;SDS011;26405;51.850;-2.246;2023-07-29T13:07:37;10.57;;;3.15;;
40717;SDS011;26405;51.850;-2.246;2023-07-29T13:10:03;11.23;;;2.88;;
40717;SDS011;26405;51.850;-2.246;2023-07-29T13:12:28;10.80;;;2.77;;
40717;SDS011;26405;51.850;-2.246;2023-07-29T13:14:54;8.07;;;2.50;;
40717;SDS011;26405;51.850;-2.246;2023-07-29T13:17:21;11.18;;;2.88;;
40717;SDS011;26405;51.850;-2.246;2023-07-29T13:19:47;8.40;;;2.58;;
40717;SDS011;26405;51.850;-2.246;2023-07-29T13:22:13;12.17;;;2.80;;
40717;SDS011;26405;51.850;-2.246;2023-07-29T13:24:39;10.77;;;2.63;;
40717;SDS011;26405;51.850;-2.246;2023-07-29T13:27:04;10.17;;;2.47;;
40717;SDS011;26405;51.850;-2.246;2023-07-29T13:29:30;8.77;;;2.37;;
40717;SDS011;26405;51.850;-2.246;2023-07-29T13:31:55;10.10;;;2.80;;
40717;SDS011;26405;51.850;-2.246;2023-07-29T13:34:21;12.87;;;3.13;;
40717;SDS011;26405;51.850;-2.246;2023-07-29T13:36:49;10.43;;;2.83;;
40717;SDS011;26405;51.850;-2.246;2023-07-29T13:39:15;9.97;;;2.60;;
40717;SDS011;26405;51.850;-2.246;2023-07-29T13:41:41;10.68;;;2.80;;
40717;SDS011;26405;51.850;-2.246;2023-07-29T13:44:07;10.90;;;3.07;;
40717;SDS011;26405;51.850;-2.246;2023-07-29T13:46:33;13.47;;;3.00;;
40717;SDS011;26405;51.850;-2.246;2023-07-29T13:48:58;9.20;;;2.67;;
40717;SDS011;26405;51.850;-2.246;2023-07-29T13:51:23;13.53;;;2.70;;
40717;SDS011;26405;51.850;-2.246;2023-07-29T13:53:49;11.83;;;2.77;;
40717;SDS011;26405;51.850;-2.246;2023-07-29T13:56:14;10.13;;;2.50;;
40717;SDS011;26405;51.850;-2.246;2023-07-29T13:58:40;12.77;;;2.80;;
40717;SDS011;26405;51.850;-2.246;2023-07-29T14:01:06;7.80;;;2.60;;
40717;SDS011;26405;51.850;-2.246;2023-07-29T14:03:32;9.88;;;2.70;;
40717;SDS011;26405;51.850;-2.246;2023-07-29T14:05:57;7.53;;;2.40;;
40717;SDS011;26405;51.850;-2.246;2023-07-29T14:08:23;14.83;;;2.93;;
40717;SDS011;26405;51.850;-2.246;2023-07-29T14:10:49;10.23;;;2.80;;
40717;SDS011;26405;51.850;-2.246;2023-07-29T14:13:14;12.00;;;2.78;;
40717;SDS011;26405;51.850;-2.246;2023-07-29T14:15:41;11.73;;;2.50;;
40717;SDS011;26405;51.850;-2.246;2023-07-29T14:18:06;8.20;;;2.70;;
40717;SDS011;26405;51.850;-2.246;2023-07-29T14:20:32;11.43;;;3.20;;
40717;SDS011;26405;51.850;-2.246;2023-07-29T14:22:59;9.43;;;3.03;;
40717;SDS011;26405;51.850;-2.246;2023-07-29T14:25:26;11.53;;;2.60;;
40717;SDS011;26405;51.850;-2.246;2023-07-29T14:27:56;9.38;;;2.85;;
40717;SDS011;26405;51.850;-2.246;2023-07-29T14:30:21;10.83;;;2.90;;
40717;SDS011;26405;51.850;-2.246;2023-07-29T14:35:13;13.40;;;2.80;;
40717;SDS011;26405;51.850;-2.246;2023-07-29T14:37:38;6.37;;;2.30;;
40717;SDS011;26405;51.850;-2.246;2023-07-29T14:40:04;12.03;;;2.73;;
40717;SDS011;26405;51.850;-2.246;2023-07-29T14:42:30;11.10;;;2.40;;
40717;SDS011;26405;51.850;-2.246;2023-07-29T14:44:55;11.43;;;3.10;;
40717;SDS011;26405;51.850;-2.246;2023-07-29T14:47:22;7.20;;;2.58;;
40717;SDS011;26405;51.850;-2.246;2023-07-29T14:49:47;11.73;;;2.90;;
40717;SDS011;26405;51.850;-2.246;2023-07-29T14:52:13;8.67;;;2.63;;
40717;SDS011;26405;51.850;-2.246;2023-07-29T14:54:38;8.83;;;2.40;;
40717;SDS011;26405;51.850;-2.246;2023-07-29T14:57:06;9.77;;;2.90;;